Glen, Mississippi
Current Conditions -  °F | °C
As of 6:55 PM on Monday 26 Jan 2015 (Local Time) from KCRX Reporting Station
Broken Clouds Broken Clouds  
Wind Chill: 43°   Ceiling: 7500
Heat Index: 43°   Visibility: 10mi
Dew Point: 30°   Wind: 0mph
Humidity: 61%   Direction: NA
Pressure: 29.97"   Gusts: NA
Location:  34.84°N, 88.42°W
Report Text: KCRX 270055Z AUTO 00000KT 10SM BKN075 06/M01 A2997 RMK AO2
Loading
Personal Weather Stations






























Interactive Weather Map New forecast layout! Learn more

10-Day Weather Forecast

Advertisements
Track Severe Weather on mobile